Pacific Dawn — 3ECJ9 — position and weather

sailwx.info

Track history (hours):
 
Tides and Currents Weather Stations Pressure Air Temp Water Temp Dewpoint Dewpoint Depression Visibility Wind Speed Wind Dir Waves Ship Positions

Pacific Dawn

Last reported at 2017-Jan-25 05:33 UTC. Time now 2017-Mar-28 02:33 UTC.
Position N 01°15' E 104°05'.
Warning: this ship's position is months out of date.

Length 239 m; draft 9 m.

Type: Tanker. MMSI: 371361000.

Date/timePositionNaut miles runAvg speedWind from/ knotsBaromVisibWave heightAir tempDewpointWater temp
2017-Jan-25 05:33N 01°15' E 104°05'1312.9
2017-Jan-25 04:33N 01°11' E 103°53'7710.3
2017-Jan-24 21:08N 01°40' E 102°41'1011.7
2017-Jan-24 20:16N 01°45' E 102°32'811.5
2017-Jan-24 19:33N 01°49' E 102°25'  
2017-Jan-21 13:32N 01°11' E 103°40'8 7.8
2017-Jan-21 12:31N 01°11' E 103°48'1111.1
2017-Jan-21 11:33N 01°15' E 103°58'  
2017-Jan-16 06:15N 01°17' E 104°01'1 1.7
2017-Jan-16 05:31N 01°17' E 104°00'0 0.0
2017-Jan-16 04:31N 01°17' E 104°00'0 0.1
2017-Jan-16 03:10N 01°17' E 103°60'0 0.0
2017-Jan-16 02:28N 01°17' E 103°60'0 0.0
2017-Jan-16 01:29N 01°17' E 103°60'0 0.0
2017-Jan-16 00:32N 01°17' E 103°60'0 0.0
2017-Jan-15 23:31N 01°17' E 103°60'0 0.0
2017-Jan-15 22:31N 01°17' E 103°60'0 0.0
2017-Jan-15 21:32N 01°17' E 103°60'0 0.1
2017-Jan-15 20:13N 01°17' E 104°00'0 0.0
2017-Jan-15 19:26N 01°17' E 104°00'0 0.1
2017-Jan-15 18:29N 01°17' E 103°60'0 0.1
2017-Jan-15 17:32N 01°17' E 104°00'0 0.0
2017-Jan-15 16:16N 01°17' E 104°00'0 0.0
2017-Jan-15 15:31N 01°17' E 104°00'0 0.0
2017-Jan-15 14:29N 01°17' E 104°00'0 0.1
2017-Jan-15 13:11N 01°17' E 104°00'0 0.1
2017-Jan-15 12:20N 01°17' E 104°00'0 0.0
2017-Jan-15 11:26N 01°17' E 104°00'2 2.0
2017-Jan-15 10:34N 01°16' E 103°59'6 6.2
2017-Jan-15 09:33N 01°12' E 103°54'  
Track history (hours):
 
Tides and Currents Weather Stations Pressure Air Temp Water Temp Dewpoint Dewpoint Depression Visibility Wind Speed Wind Dir Waves Ship Positions

Pacific Dawn

Last reported at 2017-Jan-25 05:33 UTC. Time now 2017-Mar-28 02:33 UTC.
Position N 01°15' E 104°05'.
Warning: this ship's position is months out of date.

Length 239 m; draft 9 m.

Type: Tanker. MMSI: 371361000.

Date/timePositionNaut miles runAvg speedWind from/ knotsBaromVisibWave heightAir tempDewpointWater temp
2017-Jan-25 05:33N 01°15' E 104°05'1312.9
2017-Jan-25 04:33N 01°11' E 103°53'7710.3
2017-Jan-24 21:08N 01°40' E 102°41'1011.7
2017-Jan-24 20:16N 01°45' E 102°32'811.5
2017-Jan-24 19:33N 01°49' E 102°25'  
2017-Jan-21 13:32N 01°11' E 103°40'8 7.8
2017-Jan-21 12:31N 01°11' E 103°48'1111.1
2017-Jan-21 11:33N 01°15' E 103°58'  
2017-Jan-16 06:15N 01°17' E 104°01'1 1.7
2017-Jan-16 05:31N 01°17' E 104°00'0 0.0
2017-Jan-16 04:31N 01°17' E 104°00'0 0.1
2017-Jan-16 03:10N 01°17' E 103°60'0 0.0
2017-Jan-16 02:28N 01°17' E 103°60'0 0.0
2017-Jan-16 01:29N 01°17' E 103°60'0 0.0
2017-Jan-16 00:32N 01°17' E 103°60'0 0.0
2017-Jan-15 23:31N 01°17' E 103°60'0 0.0
2017-Jan-15 22:31N 01°17' E 103°60'0 0.0
2017-Jan-15 21:32N 01°17' E 103°60'0 0.1
2017-Jan-15 20:13N 01°17' E 104°00'0 0.0
2017-Jan-15 19:26N 01°17' E 104°00'0 0.1
2017-Jan-15 18:29N 01°17' E 103°60'0 0.1
2017-Jan-15 17:32N 01°17' E 104°00'0 0.0
2017-Jan-15 16:16N 01°17' E 104°00'0 0.0
2017-Jan-15 15:31N 01°17' E 104°00'0 0.0
2017-Jan-15 14:29N 01°17' E 104°00'0 0.1
2017-Jan-15 13:11N 01°17' E 104°00'0 0.1
2017-Jan-15 12:20N 01°17' E 104°00'0 0.0
2017-Jan-15 11:26N 01°17' E 104°00'2 2.0
2017-Jan-15 10:34N 01°16' E 103°59'6 6.2
2017-Jan-15 09:33N 01°12' E 103°54'  

Dump ship's entire track history